Templeton, Indiana
Current Conditions -  °F | °C
As of 11:54 AM on Friday 21 Nov 2014 (Local Time) from KLAF Reporting Station
Clear Clear  
Wind Chill: 17°   Ceiling: Unl
Heat Index: 26°   Visibility: 10mi
Dew Point: 10°   Wind: 9mph
Humidity: 51%   Direction: 140°SE
Pressure: 30.48"   Gusts: NA
Location:  40.51°N, 87.21°W
Report Text: KLAF 211654Z 14008KT 10SM CLR M03/M12 A3048 RMK AO2 SLP332 T10331122
Loading
Personal Weather Stations






























Interactive Weather Map New forecast layout! Learn more

10-Day Weather Forecast

Advertisements
Track Severe Weather on mobile